Adamsdale, Pennsylvania
Current Conditions -  °F | °C
As of 4:06 AM on Thursday 23 Oct 2014 (Local Time) from KRDG Reporting Station
Overcast Overcast  
Wind Chill: 52°   Ceiling: 2700
Heat Index: 52°   Visibility: 10mi
Dew Point: 43°   Wind: 13mph
Humidity: 71%   Direction: 340°NNW
Pressure: 29.82"   Gusts: 24mph
Location:  40.6412°N, 76.1672°W
Report Text: KRDG 230806Z 34011G21KT 10SM BKN027 OVC049 11/06 A2982 RMK AO2 T01110061
Loading
Personal Weather Stations






























Interactive Weather Map
Tropical Storm Tracking
New forecast layout! Learn more

10-Day Weather Forecast

Advertisements
Track Severe Weather on mobile